Detalii statie GENERAL AGRO [00001CEA]

Toti senzorii

Date Temperatura solului [C]Precipitatii [mm]Voltaj baterie [mV]HC Air temperature [C]HC Relative humidity [%]Punctul de roua [C]
medieminmaxsumaultimamedieminmaxmediemediemin
2019-08-15 20:00:00 22.7 22.6 22.9 0 6834 18.18 18.13 18.24 0 0 0
2019-08-15 20:30:00 22.5 22.3 22.7 0 6826 17.98 17.91 18.14 0 0 0
2019-08-15 21:00:00 22.4 22.3 22.5 0 6826 17.76 17.69 17.96 0 0 0
2019-08-15 21:30:00 22.2 22.1 22.5 0 6816 17.69 17.49 17.83 0 0 0
2019-08-15 22:00:00 22.1 22 22.2 0 6826 17.5 17.4 17.6 0 0 0
2019-08-15 22:30:00 22 22 22.2 0 6796 17.38 17.21 17.57 0 0 0
2019-08-15 23:00:00 21.9 21.9 22.1 0 6816 17.07 16.96 17.18 0 0 0
2019-08-15 23:30:00 21.7 21.5 21.9 0 6786 17.24 17.12 17.33 0 0 0
2019-08-16 00:00:00 21.6 21.4 21.8 0 6806 17.11 17.01 17.23 0 0 0
2019-08-16 00:30:00 21.6 21.5 21.7 0 6786 16.81 16.72 16.9 0 0 0
2019-08-16 01:00:00 21.4 21.3 21.5 0 6796 16.64 16.48 16.91 9.02 -17 -17.8
2019-08-16 01:30:00 21.4 21.2 21.5 0 6776 16.39 16.3 16.47 13.69 -11.8 -14
2019-08-16 02:00:00 21.3 21.3 21.4 0 6786 16.01 15.82 16.33 12.29 0
2019-08-16 02:30:00 21.3 21.2 21.4 0 6756 16.28 15.98 16.49 15.48 -10.4 -12.2
2019-08-16 03:00:00 21.2 21.1 21.3 0 6766 16.25 15.92 16.54 14.24 0
2019-08-16 03:30:00 21.1 21.1 21.2 0 6748 16.13 16.07 16.18 0 0 0
2019-08-16 04:00:00 21 21 21.1 0 6756 15.89 15.72 16.02 0 0 0
2019-08-16 04:30:00 21 21 21.1 0 6738 15.51 15.1 15.79 0 0 0
2019-08-16 05:00:00 20.9 20.9 21 0 6748 14.84 14.64 15.01 0 0 0
2019-08-16 05:30:00 20.8 20.7 20.9 0 6738 14.59 14.34 14.82 0 0 0
2019-08-16 06:00:00 20.7 20.7 20.9 0 6748 14.33 13.96 14.69 0 0 0
2019-08-16 06:30:00 20.7 20.6 20.8 0 6728 13.45 13.25 13.75 0 0 0
2019-08-16 07:00:00 20.6 20.6 20.7 0 6756 14.52 13.62 15.25 0 0 0
2019-08-16 07:30:00 20.7 20.6 20.8 0 6766 16.5 15.85 17.23 0 0 0
2019-08-16 08:00:00 20.7 20.7 20.9 0 6894 18.11 17.42 18.56 0 0 0
2019-08-16 08:30:00 20.8 20.7 21 0 7080 19.41 18.63 19.93 0 0 0
2019-08-16 09:00:00 21 20.9 21.1 0 7138 20.34 20 20.59 0 0 0
2019-08-16 09:30:00 21 21 21.1 0 7148 21.27 20.61 21.97 0 0 0
2019-08-16 10:00:00 21.3 21.2 21.4 0 7148 21.82 21.63 22.17 0 0 0
2019-08-16 10:30:00 21.4 21.3 21.5 0 7138 22.14 21.73 22.42 0 0 0
2019-08-16 11:00:00 21.6 21.5 21.7 0 7138 22.51 22.14 22.72 0 0 0
2019-08-16 11:30:00 21.8 21.6 22.1 0 7138 23.34 23.06 23.65 0 0 0
2019-08-16 12:00:00 22 22 22.2 0 7138 23.64 23.06 24.42 0 0 0
2019-08-16 12:30:00 22.2 22.1 22.3 0 7138 24.29 23.86 24.92 0 0 0
2019-08-16 13:00:00 22.3 22.2 22.5 0 7138 24.39 23.38 25.25 0 0 0
2019-08-16 13:30:00 22.6 22.5 22.7 0 7128 25.07 24.83 25.25 0 0 0
2019-08-16 14:00:00 22.7 22.7 22.9 0 7128 25.38 24.85 25.77 0 0 0
2019-08-16 14:30:00 22.9 22.8 23.1 0 7050 25.86 25.56 26.13 0 0 0
2019-08-16 15:00:00 23 23 23.1 0 7020 25.5 25.41 25.63 0 0 0
2019-08-16 15:30:00 23 23 23.1 0 6952 25.9 25.83 25.97 0 0 0
2019-08-16 16:00:00 23 22.9 23.2 0 6952 25.9 25.69 26.09 0 0 0
2019-08-16 16:30:00 23.2 23.2 23.3 0 6904 26.04 25.81 26.29 0 0 0
2019-08-16 17:00:00 23.1 23 23.3 0 6904 25.41 24.69 26.06 0 0 0
2019-08-16 17:30:00 23.1 23 23.2 0 6864 24.72 24.42 24.95 0 0 0
2019-08-16 18:00:00 23 23 23.2 0 6864 23.73 23.5 24.06 0 0 0
2019-08-16 18:30:00 22.9 22.8 23 0 6844 22.89 22.35 23.6 0 0 0
2019-08-16 19:00:00 22.8 22.8 22.8 0 6844 21.98 21.62 22.33 0 0 0
2019-08-16 19:30:00 22.8 22.7 23 0 6826 21.14 20.56 21.49 0 0 0